Terminal Aerodrome Forecast
Issued by NWS

Home | Current Version | Previous Version | Text Only | Print | Product List | Glossary On
Versions: 1 2 3 4 5 6 7 8 9 10 11 12 13 14 15 16 17 18 19 20 21 22 23 24 25 26 27 28 29 30 31 32 33 34
000
FTUS42 KCAE 022041 AAC
TAFCUB
TAF AMD
KCUB 022041Z 0221/0318 24013G22KT 4SM TSRA OVC030CB
      TEMPO 0221/0222 31025G45KT 1SM TSRA OVC025CB
     FM022200 23012G20KT P6SM VCTS BKN035CB
     FM030100 22008KT P6SM VCTS BKN040CB
     FM031400 25012G18KT P6SM SCT040 BKN100=

USA.gov is the U.S. government's official web portal to all federal, state and local government web resources and services.